Terminal Aerodrome Forecast
Issued by NWS Topeka, KS

Home | Current Version | Previous Version | Graphics & Text | Print | Product List | Glossary On
Versions: 1 2 3 4 5 6 7 8 9 10 11 12 13 14 15 16 17 18 19 20 21 22 23 24 25 26 27 28 29
604
FTUS43 KTOP 251128
TAFTOP
TAF
KTOP 251128Z 2512/2612 32011KT 5SM -SHRA SCT008 OVC010
     FM251400 34012G20KT 6SM -SHRA OVC010
     FM251900 35011KT P6SM VCSH OVC013
     FM260300 33006KT P6SM OVC013=

USA.gov is the U.S. government's official web portal to all federal, state and local government web resources and services.